sensor_id;sensor_type;location;lat;lon;timestamp;P1;durP1;ratioP1;P2;durP2;ratioP2
24585;SDS011;12743;52.262;6.172;2023-04-29T00:00:05;33.08;;;16.05;;
24585;SDS011;12743;52.262;6.172;2023-04-29T00:02:38;28.63;;;14.77;;
24585;SDS011;12743;52.262;6.172;2023-04-29T00:05:05;33.78;;;16.30;;
24585;SDS011;12743;52.262;6.172;2023-04-29T00:07:33;35.03;;;18.33;;
24585;SDS011;12743;52.262;6.172;2023-04-29T00:09:59;29.45;;;16.23;;
24585;SDS011;12743;52.262;6.172;2023-04-29T00:12:26;32.65;;;17.70;;
24585;SDS011;12743;52.262;6.172;2023-04-29T00:14:53;30.85;;;15.52;;
24585;SDS011;12743;52.262;6.172;2023-04-29T00:17:20;32.75;;;17.67;;
24585;SDS011;12743;52.262;6.172;2023-04-29T00:19:46;33.33;;;18.13;;
24585;SDS011;12743;52.262;6.172;2023-04-29T00:22:13;31.60;;;17.38;;
24585;SDS011;12743;52.262;6.172;2023-04-29T00:24:39;36.70;;;19.08;;
24585;SDS011;12743;52.262;6.172;2023-04-29T00:27:06;30.13;;;17.00;;
24585;SDS011;12743;52.262;6.172;2023-04-29T00:29:33;30.65;;;17.40;;
24585;SDS011;12743;52.262;6.172;2023-04-29T00:31:59;33.60;;;17.13;;
24585;SDS011;12743;52.262;6.172;2023-04-29T00:34:26;28.98;;;15.75;;
24585;SDS011;12743;52.262;6.172;2023-04-29T00:36:52;36.17;;;18.70;;
24585;SDS011;12743;52.262;6.172;2023-04-29T00:39:20;34.88;;;18.75;;
24585;SDS011;12743;52.262;6.172;2023-04-29T00:41:46;33.65;;;16.52;;
24585;SDS011;12743;52.262;6.172;2023-04-29T00:44:13;29.50;;;15.50;;
24585;SDS011;12743;52.262;6.172;2023-04-29T00:46:40;37.58;;;19.05;;
24585;SDS011;12743;52.262;6.172;2023-04-29T00:49:06;32.85;;;17.52;;
24585;SDS011;12743;52.262;6.172;2023-04-29T00:51:34;40.55;;;20.42;;
24585;SDS011;12743;52.262;6.172;2023-04-29T00:54:03;36.08;;;18.23;;
24585;SDS011;12743;52.262;6.172;2023-04-29T00:56:31;37.00;;;17.90;;
24585;SDS011;12743;52.262;6.172;2023-04-29T00:59:00;38.42;;;19.55;;
24585;SDS011;12743;52.262;6.172;2023-04-29T01:01:28;36.00;;;17.70;;
24585;SDS011;12743;52.262;6.172;2023-04-29T01:03:56;40.13;;;19.23;;
24585;SDS011;12743;52.262;6.172;2023-04-29T01:09:24;36.97;;;18.40;;
24585;SDS011;12743;52.262;6.172;2023-04-29T01:12:20;36.30;;;19.05;;
24585;SDS011;12743;52.262;6.172;2023-04-29T01:15:02;34.72;;;17.35;;
24585;SDS011;12743;52.262;6.172;2023-04-29T01:17:55;29.83;;;15.18;;
24585;SDS011;12743;52.262;6.172;2023-04-29T01:20:36;30.33;;;15.55;;
24585;SDS011;12743;52.262;6.172;2023-04-29T01:23:04;35.53;;;17.87;;
24585;SDS011;12743;52.262;6.172;2023-04-29T01:25:30;33.72;;;16.95;;
24585;SDS011;12743;52.262;6.172;2023-04-29T01:31:27;33.40;;;16.73;;
24585;SDS011;12743;52.262;6.172;2023-04-29T01:42:41;36.15;;;17.65;;
24585;SDS011;12743;52.262;6.172;2023-04-29T01:45:15;37.28;;;17.05;;
24585;SDS011;12743;52.262;6.172;2023-04-29T01:47:43;33.83;;;16.35;;
24585;SDS011;12743;52.262;6.172;2023-04-29T01:50:12;33.07;;;16.03;;
24585;SDS011;12743;52.262;6.172;2023-04-29T01:52:39;28.75;;;14.90;;
24585;SDS011;12743;52.262;6.172;2023-04-29T01:55:06;35.97;;;17.45;;
24585;SDS011;12743;52.262;6.172;2023-04-29T01:57:41;37.25;;;18.45;;
24585;SDS011;12743;52.262;6.172;2023-04-29T02:00:40;32.05;;;16.30;;
24585;SDS011;12743;52.262;6.172;2023-04-29T02:03:08;32.63;;;16.60;;
24585;SDS011;12743;52.262;6.172;2023-04-29T02:05:38;35.17;;;16.92;;
24585;SDS011;12743;52.262;6.172;2023-04-29T02:08:05;32.83;;;16.15;;
24585;SDS011;12743;52.262;6.172;2023-04-29T02:10:37;39.50;;;18.70;;
24585;SDS011;12743;52.262;6.172;2023-04-29T02:13:14;33.97;;;15.98;;
24585;SDS011;12743;52.262;6.172;2023-04-29T02:15:41;31.70;;;15.53;;
24585;SDS011;12743;52.262;6.172;2023-04-29T02:18:08;35.30;;;16.17;;
24585;SDS011;12743;52.262;6.172;2023-04-29T02:20:35;39.50;;;16.35;;
24585;SDS011;12743;52.262;6.172;2023-04-29T02:23:03;33.72;;;16.73;;
24585;SDS011;12743;52.262;6.172;2023-04-29T02:25:30;38.00;;;16.90;;
24585;SDS011;12743;52.262;6.172;2023-04-29T02:27:57;33.03;;;15.93;;
24585;SDS011;12743;52.262;6.172;2023-04-29T02:30:24;31.20;;;15.93;;
24585;SDS011;12743;52.262;6.172;2023-04-29T02:32:51;33.03;;;16.48;;
24585;SDS011;12743;52.262;6.172;2023-04-29T02:35:18;30.80;;;15.73;;
24585;SDS011;12743;52.262;6.172;2023-04-29T02:37:45;31.17;;;15.38;;
24585;SDS011;12743;52.262;6.172;2023-04-29T02:40:12;32.87;;;16.77;;
24585;SDS011;12743;52.262;6.172;2023-04-29T02:42:38;26.20;;;14.02;;
24585;SDS011;12743;52.262;6.172;2023-04-29T02:45:05;30.25;;;15.82;;
24585;SDS011;12743;52.262;6.172;2023-04-29T02:47:32;31.27;;;15.70;;
24585;SDS011;12743;52.262;6.172;2023-04-29T02:49:59;35.25;;;15.50;;
24585;SDS011;12743;52.262;6.172;2023-04-29T02:52:25;26.70;;;15.40;;
24585;SDS011;12743;52.262;6.172;2023-04-29T02:54:52;27.38;;;14.57;;
24585;SDS011;12743;52.262;6.172;2023-04-29T02:57:19;27.85;;;14.32;;
24585;SDS011;12743;52.262;6.172;2023-04-29T02:59:46;30.98;;;15.65;;
24585;SDS011;12743;52.262;6.172;2023-04-29T03:02:12;30.38;;;15.20;;
24585;SDS011;12743;52.262;6.172;2023-04-29T03:04:41;25.80;;;14.30;;
24585;SDS011;12743;52.262;6.172;2023-04-29T03:07:08;29.35;;;14.82;;
24585;SDS011;12743;52.262;6.172;2023-04-29T03:09:35;28.65;;;15.15;;
24585;SDS011;12743;52.262;6.172;2023-04-29T03:12:02;26.67;;;14.23;;
24585;SDS011;12743;52.262;6.172;2023-04-29T03:14:29;27.92;;;13.45;;
24585;SDS011;12743;52.262;6.172;2023-04-29T03:16:57;27.00;;;13.53;;
24585;SDS011;12743;52.262;6.172;2023-04-29T03:19:24;26.92;;;14.20;;
24585;SDS011;12743;52.262;6.172;2023-04-29T03:21:50;25.95;;;12.48;;
24585;SDS011;12743;52.262;6.172;2023-04-29T03:24:19;25.95;;;14.35;;
24585;SDS011;12743;52.262;6.172;2023-04-29T03:26:46;23.20;;;12.52;;
24585;SDS011;12743;52.262;6.172;2023-04-29T03:29:12;22.20;;;12.47;;
24585;SDS011;12743;52.262;6.172;2023-04-29T03:31:39;23.92;;;12.10;;
24585;SDS011;12743;52.262;6.172;2023-04-29T03:34:06;24.20;;;12.60;;
24585;SDS011;12743;52.262;6.172;2023-04-29T03:36:36;25.02;;;13.18;;
24585;SDS011;12743;52.262;6.172;2023-04-29T03:39:06;22.10;;;12.77;;
24585;SDS011;12743;52.262;6.172;2023-04-29T03:41:34;25.30;;;13.00;;
24585;SDS011;12743;52.262;6.172;2023-04-29T03:44:01;25.77;;;13.05;;
24585;SDS011;12743;52.262;6.172;2023-04-29T03:46:28;22.38;;;12.57;;
24585;SDS011;12743;52.262;6.172;2023-04-29T03:48:55;24.20;;;12.55;;
24585;SDS011;12743;52.262;6.172;2023-04-29T03:51:25;24.92;;;12.70;;
24585;SDS011;12743;52.262;6.172;2023-04-29T03:54:03;22.37;;;12.13;;
24585;SDS011;12743;52.262;6.172;2023-04-29T03:56:30;22.85;;;12.38;;
24585;SDS011;12743;52.262;6.172;2023-04-29T03:58:56;22.70;;;11.32;;
24585;SDS011;12743;52.262;6.172;2023-04-29T04:01:24;22.23;;;10.82;;
24585;SDS011;12743;52.262;6.172;2023-04-29T04:03:51;23.58;;;12.88;;
24585;SDS011;12743;52.262;6.172;2023-04-29T04:06:18;21.27;;;11.30;;
24585;SDS011;12743;52.262;6.172;2023-04-29T04:08:45;23.13;;;12.30;;
24585;SDS011;12743;52.262;6.172;2023-04-29T04:11:16;23.30;;;12.63;;
24585;SDS011;12743;52.262;6.172;2023-04-29T04:13:47;22.50;;;12.30;;
24585;SDS011;12743;52.262;6.172;2023-04-29T04:16:15;21.13;;;11.65;;
24585;SDS011;12743;52.262;6.172;2023-04-29T04:18:42;23.30;;;11.93;;
24585;SDS011;12743;52.262;6.172;2023-04-29T04:21:09;24.85;;;12.65;;
24585;SDS011;12743;52.262;6.172;2023-04-29T04:23:40;20.08;;;10.95;;
24585;SDS011;12743;52.262;6.172;2023-04-29T04:26:09;24.27;;;11.80;;
24585;SDS011;12743;52.262;6.172;2023-04-29T04:28:54;28.15;;;13.82;;
24585;SDS011;12743;52.262;6.172;2023-04-29T04:31:40;28.43;;;14.00;;
24585;SDS011;12743;52.262;6.172;2023-04-29T04:34:07;24.75;;;12.48;;
24585;SDS011;12743;52.262;6.172;2023-04-29T04:36:34;26.95;;;13.93;;
24585;SDS011;12743;52.262;6.172;2023-04-29T04:39:01;25.40;;;13.82;;
24585;SDS011;12743;52.262;6.172;2023-04-29T04:41:27;26.30;;;14.32;;
24585;SDS011;12743;52.262;6.172;2023-04-29T04:43:57;23.67;;;13.13;;
24585;SDS011;12743;52.262;6.172;2023-04-29T04:46:42;23.88;;;12.07;;
24585;SDS011;12743;52.262;6.172;2023-04-29T04:49:26;29.98;;;14.30;;
24585;SDS011;12743;52.262;6.172;2023-04-29T04:51:53;28.98;;;13.73;;
24585;SDS011;12743;52.262;6.172;2023-04-29T04:54:19;23.30;;;12.43;;
24585;SDS011;12743;52.262;6.172;2023-04-29T04:56:50;29.50;;;13.77;;
24585;SDS011;12743;52.262;6.172;2023-04-29T04:59:17;30.33;;;15.05;;
24585;SDS011;12743;52.262;6.172;2023-04-29T05:01:44;27.55;;;13.90;;
24585;SDS011;12743;52.262;6.172;2023-04-29T05:04:10;24.92;;;13.23;;
24585;SDS011;12743;52.262;6.172;2023-04-29T05:06:37;25.98;;;12.77;;
24585;SDS011;12743;52.262;6.172;2023-04-29T05:09:04;23.47;;;12.73;;
24585;SDS011;12743;52.262;6.172;2023-04-29T05:11:33;26.73;;;13.73;;
24585;SDS011;12743;52.262;6.172;2023-04-29T05:14:11;27.17;;;14.38;;
24585;SDS011;12743;52.262;6.172;2023-04-29T05:16:38;24.13;;;11.70;;
24585;SDS011;12743;52.262;6.172;2023-04-29T05:19:04;27.02;;;13.13;;
24585;SDS011;12743;52.262;6.172;2023-04-29T05:21:35;26.93;;;14.57;;
24585;SDS011;12743;52.262;6.172;2023-04-29T05:24:02;32.83;;;15.40;;
24585;SDS011;12743;52.262;6.172;2023-04-29T05:26:28;23.75;;;13.02;;
24585;SDS011;12743;52.262;6.172;2023-04-29T05:28:58;25.77;;;13.00;;
24585;SDS011;12743;52.262;6.172;2023-04-29T05:31:25;28.20;;;14.00;;
24585;SDS011;12743;52.262;6.172;2023-04-29T05:33:55;26.27;;;12.97;;
24585;SDS011;12743;52.262;6.172;2023-04-29T05:36:23;26.88;;;13.75;;
24585;SDS011;12743;52.262;6.172;2023-04-29T05:38:49;25.17;;;12.23;;
24585;SDS011;12743;52.262;6.172;2023-04-29T05:41:17;26.20;;;13.07;;
24585;SDS011;12743;52.262;6.172;2023-04-29T05:43:53;30.15;;;15.32;;
24585;SDS011;12743;52.262;6.172;2023-04-29T05:46:20;27.03;;;14.07;;
24585;SDS011;12743;52.262;6.172;2023-04-29T05:48:48;27.23;;;13.43;;
24585;SDS011;12743;52.262;6.172;2023-04-29T05:51:16;29.63;;;13.65;;
24585;SDS011;12743;52.262;6.172;2023-04-29T05:53:42;24.23;;;12.27;;
24585;SDS011;12743;52.262;6.172;2023-04-29T05:56:09;29.58;;;13.70;;
24585;SDS011;12743;52.262;6.172;2023-04-29T05:58:37;26.23;;;12.27;;
24585;SDS011;12743;52.262;6.172;2023-04-29T06:01:03;24.58;;;12.65;;
24585;SDS011;12743;52.262;6.172;2023-04-29T06:03:30;24.63;;;12.30;;
24585;SDS011;12743;52.262;6.172;2023-04-29T06:06:17;25.52;;;12.80;;
24585;SDS011;12743;52.262;6.172;2023-04-29T06:09:07;24.50;;;12.25;;
24585;SDS011;12743;52.262;6.172;2023-04-29T06:11:49;29.93;;;14.20;;
24585;SDS011;12743;52.262;6.172;2023-04-29T06:14:16;23.27;;;11.68;;
24585;SDS011;12743;52.262;6.172;2023-04-29T06:16:42;24.08;;;12.50;;
24585;SDS011;12743;52.262;6.172;2023-04-29T06:19:09;31.70;;;13.43;;
24585;SDS011;12743;52.262;6.172;2023-04-29T06:21:35;23.42;;;12.20;;
24585;SDS011;12743;52.262;6.172;2023-04-29T06:24:02;27.73;;;11.83;;
24585;SDS011;12743;52.262;6.172;2023-04-29T06:26:29;28.17;;;14.02;;
24585;SDS011;12743;52.262;6.172;2023-04-29T06:28:55;24.25;;;11.63;;
24585;SDS011;12743;52.262;6.172;2023-04-29T06:31:22;25.20;;;11.77;;
24585;SDS011;12743;52.262;6.172;2023-04-29T06:33:53;21.45;;;11.18;;
24585;SDS011;12743;52.262;6.172;2023-04-29T06:36:20;25.03;;;12.27;;
24585;SDS011;12743;52.262;6.172;2023-04-29T06:39:05;26.15;;;12.88;;
24585;SDS011;12743;52.262;6.172;2023-04-29T06:41:55;25.80;;;13.52;;
24585;SDS011;12743;52.262;6.172;2023-04-29T06:44:42;25.15;;;12.75;;
24585;SDS011;12743;52.262;6.172;2023-04-29T06:47:32;24.02;;;11.35;;
24585;SDS011;12743;52.262;6.172;2023-04-29T06:50:09;25.50;;;12.33;;
24585;SDS011;12743;52.262;6.172;2023-04-29T06:52:36;25.55;;;12.00;;
24585;SDS011;12743;52.262;6.172;2023-04-29T06:55:02;23.75;;;11.13;;
24585;SDS011;12743;52.262;6.172;2023-04-29T06:57:29;24.17;;;11.85;;
24585;SDS011;12743;52.262;6.172;2023-04-29T06:59:57;26.45;;;11.73;;
24585;SDS011;12743;52.262;6.172;2023-04-29T07:02:23;22.77;;;11.20;;
24585;SDS011;12743;52.262;6.172;2023-04-29T07:04:50;22.80;;;10.75;;
24585;SDS011;12743;52.262;6.172;2023-04-29T07:07:18;22.65;;;10.18;;
24585;SDS011;12743;52.262;6.172;2023-04-29T07:09:44;21.25;;;10.13;;
24585;SDS011;12743;52.262;6.172;2023-04-29T07:12:11;19.67;;;10.23;;
24585;SDS011;12743;52.262;6.172;2023-04-29T07:14:37;20.00;;;9.80;;
24585;SDS011;12743;52.262;6.172;2023-04-29T07:17:06;21.52;;;9.57;;
24585;SDS011;12743;52.262;6.172;2023-04-29T07:19:33;19.40;;;9.50;;
24585;SDS011;12743;52.262;6.172;2023-04-29T07:21:59;19.05;;;10.35;;
24585;SDS011;12743;52.262;6.172;2023-04-29T07:24:26;19.08;;;9.43;;
24585;SDS011;12743;52.262;6.172;2023-04-29T07:26:53;16.30;;;8.50;;
24585;SDS011;12743;52.262;6.172;2023-04-29T07:29:19;19.77;;;8.75;;
24585;SDS011;12743;52.262;6.172;2023-04-29T07:31:46;17.17;;;9.30;;
24585;SDS011;12743;52.262;6.172;2023-04-29T07:34:13;24.58;;;9.30;;
24585;SDS011;12743;52.262;6.172;2023-04-29T07:36:39;19.92;;;9.40;;
24585;SDS011;12743;52.262;6.172;2023-04-29T07:39:06;18.20;;;8.27;;
24585;SDS011;12743;52.262;6.172;2023-04-29T07:41:32;22.63;;;8.57;;
24585;SDS011;12743;52.262;6.172;2023-04-29T07:43:59;18.85;;;8.40;;
24585;SDS011;12743;52.262;6.172;2023-04-29T07:46:26;17.58;;;8.93;;
24585;SDS011;12743;52.262;6.172;2023-04-29T07:48:52;26.15;;;8.70;;
24585;SDS011;12743;52.262;6.172;2023-04-29T07:51:19;15.37;;;8.43;;
24585;SDS011;12743;52.262;6.172;2023-04-29T07:53:46;15.02;;;7.22;;
24585;SDS011;12743;52.262;6.172;2023-04-29T07:56:13;16.10;;;8.15;;
24585;SDS011;12743;52.262;6.172;2023-04-29T07:58:40;15.80;;;8.02;;
24585;SDS011;12743;52.262;6.172;2023-04-29T08:01:07;15.98;;;8.27;;
24585;SDS011;12743;52.262;6.172;2023-04-29T08:03:35;15.47;;;8.00;;
24585;SDS011;12743;52.262;6.172;2023-04-29T08:06:06;17.65;;;8.05;;
24585;SDS011;12743;52.262;6.172;2023-04-29T08:08:33;18.35;;;8.98;;
24585;SDS011;12743;52.262;6.172;2023-04-29T08:11:00;16.00;;;7.93;;
24585;SDS011;12743;52.262;6.172;2023-04-29T08:13:27;14.70;;;7.80;;
24585;SDS011;12743;52.262;6.172;2023-04-29T08:15:54;17.47;;;8.13;;
24585;SDS011;12743;52.262;6.172;2023-04-29T08:18:20;15.90;;;7.65;;
24585;SDS011;12743;52.262;6.172;2023-04-29T08:20:47;14.68;;;6.70;;
24585;SDS011;12743;52.262;6.172;2023-04-29T08:23:14;15.68;;;7.63;;
24585;SDS011;12743;52.262;6.172;2023-04-29T08:25:41;15.18;;;7.78;;
24585;SDS011;12743;52.262;6.172;2023-04-29T08:28:09;14.00;;;6.67;;
24585;SDS011;12743;52.262;6.172;2023-04-29T08:30:39;16.17;;;7.75;;
24585;SDS011;12743;52.262;6.172;2023-04-29T08:33:07;17.05;;;7.47;;
24585;SDS011;12743;52.262;6.172;2023-04-29T08:35:34;11.73;;;6.15;;
24585;SDS011;12743;52.262;6.172;2023-04-29T08:38:04;16.10;;;8.07;;
24585;SDS011;12743;52.262;6.172;2023-04-29T08:40:41;14.10;;;6.70;;
24585;SDS011;12743;52.262;6.172;2023-04-29T08:43:09;13.13;;;6.70;;
24585;SDS011;12743;52.262;6.172;2023-04-29T08:45:35;13.10;;;6.30;;
24585;SDS011;12743;52.262;6.172;2023-04-29T08:48:02;12.95;;;6.90;;
24585;SDS011;12743;52.262;6.172;2023-04-29T08:50:33;14.15;;;6.63;;
24585;SDS011;12743;52.262;6.172;2023-04-29T08:53:07;14.03;;;7.50;;
24585;SDS011;12743;52.262;6.172;2023-04-29T08:55:35;15.48;;;6.82;;
24585;SDS011;12743;52.262;6.172;2023-04-29T08:58:08;13.63;;;6.70;;
24585;SDS011;12743;52.262;6.172;2023-04-29T09:00:35;12.52;;;6.15;;
24585;SDS011;12743;52.262;6.172;2023-04-29T09:03:11;11.32;;;6.10;;
24585;SDS011;12743;52.262;6.172;2023-04-29T09:05:45;13.23;;;6.33;;
24585;SDS011;12743;52.262;6.172;2023-04-29T09:08:15;13.35;;;6.45;;
24585;SDS011;12743;52.262;6.172;2023-04-29T09:10:42;14.30;;;6.40;;
24585;SDS011;12743;52.262;6.172;2023-04-29T09:13:12;10.95;;;5.88;;
24585;SDS011;12743;52.262;6.172;2023-04-29T09:15:51;12.52;;;5.90;;
24585;SDS011;12743;52.262;6.172;2023-04-29T09:21:14;12.45;;;6.50;;
24585;SDS011;12743;52.262;6.172;2023-04-29T09:23:52;14.90;;;5.93;;
24585;SDS011;12743;52.262;6.172;2023-04-29T09:26:22;12.05;;;6.10;;
24585;SDS011;12743;52.262;6.172;2023-04-29T09:29:09;12.40;;;5.72;;
24585;SDS011;12743;52.262;6.172;2023-04-29T09:31:37;12.27;;;5.13;;
24585;SDS011;12743;52.262;6.172;2023-04-29T09:34:07;11.20;;;5.25;;
24585;SDS011;12743;52.262;6.172;2023-04-29T09:44:18;10.87;;;5.27;;
24585;SDS011;12743;52.262;6.172;2023-04-29T09:47:05;15.45;;;5.45;;
24585;SDS011;12743;52.262;6.172;2023-04-29T09:49:34;11.30;;;5.38;;
24585;SDS011;12743;52.262;6.172;2023-04-29T09:52:07;13.32;;;5.53;;
24585;SDS011;12743;52.262;6.172;2023-04-29T09:54:36;14.40;;;5.88;;
24585;SDS011;12743;52.262;6.172;2023-04-29T09:57:04;10.60;;;5.17;;
24585;SDS011;12743;52.262;6.172;2023-04-29T09:59:32;9.73;;;4.88;;
24585;SDS011;12743;52.262;6.172;2023-04-29T10:02:01;9.75;;;5.07;;
24585;SDS011;12743;52.262;6.172;2023-04-29T10:04:35;10.90;;;5.32;;
24585;SDS011;12743;52.262;6.172;2023-04-29T10:07:05;9.10;;;5.07;;
24585;SDS011;12743;52.262;6.172;2023-04-29T10:09:33;10.80;;;4.53;;
24585;SDS011;12743;52.262;6.172;2023-04-29T10:12:03;9.52;;;4.53;;
24585;SDS011;12743;52.262;6.172;2023-04-29T10:14:34;8.98;;;4.70;;
24585;SDS011;12743;52.262;6.172;2023-04-29T10:17:15;10.65;;;5.07;;
24585;SDS011;12743;52.262;6.172;2023-04-29T10:19:50;10.30;;;4.45;;
24585;SDS011;12743;52.262;6.172;2023-04-29T10:22:26;7.97;;;4.43;;
24585;SDS011;12743;52.262;6.172;2023-04-29T10:24:57;7.97;;;4.07;;
24585;SDS011;12743;52.262;6.172;2023-04-29T10:27:26;9.00;;;4.22;;
24585;SDS011;12743;52.262;6.172;2023-04-29T10:29:55;9.73;;;4.20;;
24585;SDS011;12743;52.262;6.172;2023-04-29T10:32:23;11.32;;;4.32;;
24585;SDS011;12743;52.262;6.172;2023-04-29T10:34:52;9.33;;;4.23;;
24585;SDS011;12743;52.262;6.172;2023-04-29T10:37:21;8.93;;;4.28;;
24585;SDS011;12743;52.262;6.172;2023-04-29T10:39:52;17.35;;;11.90;;
24585;SDS011;12743;52.262;6.172;2023-04-29T10:42:42;8.75;;;4.22;;
24585;SDS011;12743;52.262;6.172;2023-04-29T10:50:27;8.95;;;4.32;;
24585;SDS011;12743;52.262;6.172;2023-04-29T10:53:00;8.45;;;4.53;;
24585;SDS011;12743;52.262;6.172;2023-04-29T10:55:28;11.43;;;5.10;;
24585;SDS011;12743;52.262;6.172;2023-04-29T10:57:55;9.60;;;4.80;;
24585;SDS011;12743;52.262;6.172;2023-04-29T11:02:55;10.35;;;4.45;;
24585;SDS011;12743;52.262;6.172;2023-04-29T11:05:30;9.52;;;4.68;;
24585;SDS011;12743;52.262;6.172;2023-04-29T11:08:14;10.73;;;5.00;;
24585;SDS011;12743;52.262;6.172;2023-04-29T11:10:52;9.68;;;4.53;;
24585;SDS011;12743;52.262;6.172;2023-04-29T11:13:29;12.93;;;4.80;;
24585;SDS011;12743;52.262;6.172;2023-04-29T11:18:30;9.02;;;4.20;;
24585;SDS011;12743;52.262;6.172;2023-04-29T11:23:33;6.47;;;2.92;;
24585;SDS011;12743;52.262;6.172;2023-04-29T11:26:01;6.40;;;3.57;;
24585;SDS011;12743;52.262;6.172;2023-04-29T11:28:29;7.75;;;3.83;;
24585;SDS011;12743;52.262;6.172;2023-04-29T11:30:56;7.80;;;4.07;;
24585;SDS011;12743;52.262;6.172;2023-04-29T11:33:24;7.82;;;3.22;;
24585;SDS011;12743;52.262;6.172;2023-04-29T11:35:52;8.20;;;3.80;;
24585;SDS011;12743;52.262;6.172;2023-04-29T11:38:23;9.47;;;3.30;;
24585;SDS011;12743;52.262;6.172;2023-04-29T11:40:53;9.27;;;3.70;;
24585;SDS011;12743;52.262;6.172;2023-04-29T11:43:21;8.82;;;3.75;;
24585;SDS011;12743;52.262;6.172;2023-04-29T11:45:50;7.80;;;4.18;;
24585;SDS011;12743;52.262;6.172;2023-04-29T11:50:56;7.97;;;3.20;;
24585;SDS011;12743;52.262;6.172;2023-04-29T11:53:25;7.53;;;3.30;;
24585;SDS011;12743;52.262;6.172;2023-04-29T11:55:53;6.40;;;2.85;;
24585;SDS011;12743;52.262;6.172;2023-04-29T11:58:23;6.40;;;2.97;;
24585;SDS011;12743;52.262;6.172;2023-04-29T12:00:50;7.32;;;3.15;;
24585;SDS011;12743;52.262;6.172;2023-04-29T12:03:19;11.10;;;3.73;;
24585;SDS011;12743;52.262;6.172;2023-04-29T12:05:49;7.15;;;3.40;;
24585;SDS011;12743;52.262;6.172;2023-04-29T12:08:20;8.73;;;3.60;;
24585;SDS011;12743;52.262;6.172;2023-04-29T12:10:48;7.28;;;3.13;;
24585;SDS011;12743;52.262;6.172;2023-04-29T12:13:17;8.43;;;3.10;;
24585;SDS011;12743;52.262;6.172;2023-04-29T12:15:45;8.67;;;3.63;;
24585;SDS011;12743;52.262;6.172;2023-04-29T12:18:13;7.38;;;3.50;;
24585;SDS011;12743;52.262;6.172;2023-04-29T12:20:40;7.05;;;2.70;;
24585;SDS011;12743;52.262;6.172;2023-04-29T12:23:13;6.25;;;3.13;;
24585;SDS011;12743;52.262;6.172;2023-04-29T12:25:48;6.47;;;2.90;;
24585;SDS011;12743;52.262;6.172;2023-04-29T12:28:16;7.03;;;3.70;;
24585;SDS011;12743;52.262;6.172;2023-04-29T12:30:43;6.50;;;3.28;;
24585;SDS011;12743;52.262;6.172;2023-04-29T12:33:14;7.35;;;3.25;;
24585;SDS011;12743;52.262;6.172;2023-04-29T12:35:43;5.15;;;2.90;;
24585;SDS011;12743;52.262;6.172;2023-04-29T12:38:10;6.72;;;3.00;;
24585;SDS011;12743;52.262;6.172;2023-04-29T12:40:39;6.90;;;3.30;;
24585;SDS011;12743;52.262;6.172;2023-04-29T12:43:06;6.63;;;3.53;;
24585;SDS011;12743;52.262;6.172;2023-04-29T12:45:34;6.72;;;3.22;;
24585;SDS011;12743;52.262;6.172;2023-04-29T12:48:01;7.15;;;3.20;;
24585;SDS011;12743;52.262;6.172;2023-04-29T12:50:35;7.35;;;2.72;;
24585;SDS011;12743;52.262;6.172;2023-04-29T12:53:03;5.80;;;2.23;;
24585;SDS011;12743;52.262;6.172;2023-04-29T12:55:32;6.85;;;2.60;;
24585;SDS011;12743;52.262;6.172;2023-04-29T12:58:00;5.47;;;2.58;;
24585;SDS011;12743;52.262;6.172;2023-04-29T13:00:30;6.85;;;2.30;;
24585;SDS011;12743;52.262;6.172;2023-04-29T13:02:57;5.47;;;2.58;;
24585;SDS011;12743;52.262;6.172;2023-04-29T13:05:24;5.70;;;2.00;;
24585;SDS011;12743;52.262;6.172;2023-04-29T13:07:51;5.05;;;2.38;;
24585;SDS011;12743;52.262;6.172;2023-04-29T13:10:17;5.95;;;2.58;;
24585;SDS011;12743;52.262;6.172;2023-04-29T13:12:44;6.07;;;2.50;;
24585;SDS011;12743;52.262;6.172;2023-04-29T13:15:11;5.68;;;2.90;;
24585;SDS011;12743;52.262;6.172;2023-04-29T13:17:37;4.70;;;2.63;;
24585;SDS011;12743;52.262;6.172;2023-04-29T13:20:04;7.63;;;2.75;;
24585;SDS011;12743;52.262;6.172;2023-04-29T13:22:32;6.25;;;2.85;;
24585;SDS011;12743;52.262;6.172;2023-04-29T13:24:58;6.57;;;2.70;;
24585;SDS011;12743;52.262;6.172;2023-04-29T13:27:25;5.85;;;2.30;;
24585;SDS011;12743;52.262;6.172;2023-04-29T13:29:52;4.00;;;1.83;;
24585;SDS011;12743;52.262;6.172;2023-04-29T13:32:19;4.72;;;1.85;;
24585;SDS011;12743;52.262;6.172;2023-04-29T13:34:49;5.40;;;2.30;;
24585;SDS011;12743;52.262;6.172;2023-04-29T13:37:16;4.93;;;2.10;;
24585;SDS011;12743;52.262;6.172;2023-04-29T13:39:42;7.25;;;2.13;;
24585;SDS011;12743;52.262;6.172;2023-04-29T13:42:13;5.27;;;2.10;;
24585;SDS011;12743;52.262;6.172;2023-04-29T13:44:41;5.65;;;2.08;;
24585;SDS011;12743;52.262;6.172;2023-04-29T13:47:29;4.72;;;2.00;;
24585;SDS011;12743;52.262;6.172;2023-04-29T13:49:57;9.85;;;2.47;;
24585;SDS011;12743;52.262;6.172;2023-04-29T13:52:43;5.47;;;2.35;;
24585;SDS011;12743;52.262;6.172;2023-04-29T13:55:13;6.37;;;2.57;;
24585;SDS011;12743;52.262;6.172;2023-04-29T13:57:59;4.40;;;1.92;;
24585;SDS011;12743;52.262;6.172;2023-04-29T14:00:46;5.05;;;2.00;;
24585;SDS011;12743;52.262;6.172;2023-04-29T14:03:33;6.47;;;2.15;;
24585;SDS011;12743;52.262;6.172;2023-04-29T14:06:01;5.50;;;2.38;;
24585;SDS011;12743;52.262;6.172;2023-04-29T14:08:28;6.97;;;2.80;;
24585;SDS011;12743;52.262;6.172;2023-04-29T14:10:54;6.05;;;2.53;;
24585;SDS011;12743;52.262;6.172;2023-04-29T14:13:21;5.47;;;2.25;;
24585;SDS011;12743;52.262;6.172;2023-04-29T14:15:47;7.53;;;3.28;;
24585;SDS011;12743;52.262;6.172;2023-04-29T14:18:14;8.77;;;3.40;;
24585;SDS011;12743;52.262;6.172;2023-04-29T14:20:40;8.00;;;3.20;;
24585;SDS011;12743;52.262;6.172;2023-04-29T14:23:07;5.95;;;2.70;;
24585;SDS011;12743;52.262;6.172;2023-04-29T14:25:33;6.55;;;3.13;;
24585;SDS011;12743;52.262;6.172;2023-04-29T14:28:00;10.32;;;2.95;;
24585;SDS011;12743;52.262;6.172;2023-04-29T14:30:27;6.22;;;2.60;;
24585;SDS011;12743;52.262;6.172;2023-04-29T14:32:53;6.00;;;2.57;;
24585;SDS011;12743;52.262;6.172;2023-04-29T14:35:20;5.93;;;2.80;;
24585;SDS011;12743;52.262;6.172;2023-04-29T14:37:46;5.25;;;2.50;;
24585;SDS011;12743;52.262;6.172;2023-04-29T14:40:13;6.05;;;2.78;;
24585;SDS011;12743;52.262;6.172;2023-04-29T14:42:40;6.40;;;2.92;;
24585;SDS011;12743;52.262;6.172;2023-04-29T14:45:06;7.30;;;3.00;;
24585;SDS011;12743;52.262;6.172;2023-04-29T14:47:34;6.72;;;2.72;;
24585;SDS011;12743;52.262;6.172;2023-04-29T14:50:00;11.48;;;3.15;;
24585;SDS011;12743;52.262;6.172;2023-04-29T14:52:27;6.70;;;2.63;;
24585;SDS011;12743;52.262;6.172;2023-04-29T14:54:53;6.28;;;2.88;;
24585;SDS011;12743;52.262;6.172;2023-04-29T14:57:21;7.43;;;2.60;;
24585;SDS011;12743;52.262;6.172;2023-04-29T14:59:47;6.80;;;2.60;;
24585;SDS011;12743;52.262;6.172;2023-04-29T15:02:14;6.40;;;2.65;;
24585;SDS011;12743;52.262;6.172;2023-04-29T15:04:41;6.78;;;2.40;;
24585;SDS011;12743;52.262;6.172;2023-04-29T15:07:11;7.10;;;2.45;;
24585;SDS011;12743;52.262;6.172;2023-04-29T15:09:39;6.43;;;2.40;;
24585;SDS011;12743;52.262;6.172;2023-04-29T15:12:05;6.70;;;2.33;;
24585;SDS011;12743;52.262;6.172;2023-04-29T15:14:32;7.07;;;2.78;;
24585;SDS011;12743;52.262;6.172;2023-04-29T15:16:59;6.75;;;2.55;;
24585;SDS011;12743;52.262;6.172;2023-04-29T15:19:25;8.80;;;2.90;;
24585;SDS011;12743;52.262;6.172;2023-04-29T15:21:52;7.93;;;3.17;;
24585;SDS011;12743;52.262;6.172;2023-04-29T15:24:19;8.55;;;3.13;;
24585;SDS011;12743;52.262;6.172;2023-04-29T15:26:45;7.07;;;2.70;;